PAEN/ENA METAR and TAF weather

Enter ICAO airport designator
Station Type Date Time Source
PAEN METAR 2019/12/08 06:53 UTC NOAA

PAEN 080653Z AUTO 04009KT 10SM SCT043 OVC070 03/01 A2915 RMK AO2 RAB06E39 SLP874 P0001 T00280006 TSNO


Station Type Date Time Source
PAEN Decoded METAR 2019/12/08 06:53 UTC NOAA

KENAI MUNICIPAL AIRPORT, AK, United States (PAEN) 60-35N 151-14W 25M
Dec 08, 2019 - 01:53 AM EST / 2019.12.08 0653 UTC
Wind: from the NE (040 degrees) at 10 MPH (9 KT):0
Visibility: 10 mile(s):0
Sky conditions: overcast
Precipitation last hour: 0.01 inches
Temperature: 37.0 F (2.8 C)
Dew Point: 33.1 F (0.6 C)
Relative Humidity: 85%
Pressure (altimeter): 29.15 in. Hg (987 hPa)
ob: PAEN 080653Z AUTO 04009KT 10SM SCT043 OVC070 03/01 A2915 RMK AO2 RAB06E39 SLP874 P0001 T00280006 TSNO
cycle: 7

Station Type Date Time Source
PAEN TAF 2019/12/08 06:42 UTC NOAA

TAF PAEN 080540Z 0806/0906 05015G20KT P6SM -RA OVC050
FM080900 16008G12KT P6SM -SHRA BKN015 OVC025
FM081200 20015G25KT 6SM -SHRASN OVC035
FM081800 18008KT P6SM VCSH BKN050
FM090000 04008KT P6SM BKN080
FM090300 03015G25KT P6SM BKN040

Example: see airport list